Time;durP1;ratioP1;P1;durP2;ratioP2;P2;SDS_P1;SDS_P2;PMS_P1;PMS_P2;Temp;Humidity;BMP_temperature;BMP_pressure;BME280_temperature;BME280_humidity;BME280_pressure;Samples;Min_cycle;Max_cycle;Signal;HPM_P1;HPM_P2
2021/01/20 00:00:21;;;;;;;18.80;7.67;;;7.00;94.20;;;;;;4995986;28;20060;-88
2021/01/20 00:02:47;;;;;;;16.13;6.80;;;7.00;94.30;;;;;;4995951;28;20097;-88
2021/01/20 00:05:13;;;;;;;20.20;7.37;;;7.00;94.20;;;;;;4993777;28;20030;-86
2021/01/20 00:07:39;;;;;;;18.27;7.23;;;7.00;93.90;;;;;;4995676;28;20402;-88
2021/01/20 00:10:05;;;;;;;17.97;7.77;;;7.00;94.20;;;;;;4995932;28;20030;-87
2021/01/20 00:12:31;;;;;;;14.73;6.73;;;7.00;94.10;;;;;;4999468;28;20021;-85
2021/01/20 00:14:56;;;;;;;15.90;6.37;;;7.00;94.00;;;;;;4999885;28;20368;-88
2021/01/20 00:17:22;;;;;;;15.00;6.00;;;7.00;93.90;;;;;;5017289;28;20026;-87
2021/01/20 00:19:47;;;;;;;16.80;6.53;;;7.00;93.60;;;;;;4999691;28;20036;-87
2021/01/20 00:22:13;;;;;;;17.50;6.33;;;7.00;93.60;;;;;;4999739;28;20025;-88
2021/01/20 00:24:40;;;;;;;14.93;6.37;;;7.00;93.70;;;;;;4999254;28;20057;-88
2021/01/20 00:27:06;;;;;;;18.47;6.37;;;7.00;93.40;;;;;;5016967;28;20030;-87
2021/01/20 00:29:35;;;;;;;15.17;5.80;;;7.00;93.80;;;;;;4999293;28;20077;-88
2021/01/20 00:32:01;;;;;;;18.25;6.60;;;6.90;93.90;;;;;;4999243;28;20061;-86
2021/01/20 00:34:27;;;;;;;15.67;5.80;;;7.00;93.80;;;;;;4999386;28;20056;-84
2021/01/20 00:36:53;;;;;;;16.80;6.60;;;7.00;93.60;;;;;;5016941;28;20025;-88
2021/01/20 00:39:19;;;;;;;15.70;6.07;;;7.00;93.40;;;;;;4997345;28;20110;-88
2021/01/20 00:41:46;;;;;;;17.40;6.97;;;7.00;93.00;;;;;;4997136;28;20558;-87
2021/01/20 00:44:15;;;;;;;16.23;6.43;;;7.00;93.10;;;;;;4979468;28;20030;-88
2021/01/20 00:46:40;;;;;;;16.27;6.82;;;7.00;93.10;;;;;;4979496;28;20026;-87
2021/01/20 00:49:06;;;;;;;17.07;6.70;;;7.00;93.10;;;;;;4996905;28;20038;-87
2021/01/20 00:51:31;;;;;;;17.93;6.50;;;7.00;93.10;;;;;;4979560;28;20035;-88
2021/01/20 00:53:57;;;;;;;14.47;6.10;;;7.00;93.20;;;;;;4997401;28;20101;-87
2021/01/20 00:56:23;;;;;;;15.93;6.60;;;6.90;93.20;;;;;;4979075;28;20076;-88
2021/01/20 00:58:48;;;;;;;15.23;6.27;;;7.00;93.30;;;;;;4979598;28;20026;-88
2021/01/20 01:01:14;;;;;;;16.03;6.87;;;6.90;93.30;;;;;;4979238;28;20026;-87
2021/01/20 01:03:39;;;;;;;14.67;6.40;;;6.90;92.80;;;;;;4979205;28;20064;-88
2021/01/20 01:06:06;;;;;;;20.40;6.67;;;6.90;93.20;;;;;;4979046;28;20026;-88
2021/01/20 01:08:32;;;;;;;18.80;6.77;;;6.90;92.80;;;;;;4979502;28;20031;-88
2021/01/20 01:10:58;;;;;;;18.07;7.43;;;6.90;93.10;;;;;;4996324;28;20036;-87
2021/01/20 01:13:24;;;;;;;16.83;6.80;;;6.90;93.00;;;;;;4979110;28;20467;-88
2021/01/20 01:15:50;;;;;;;15.27;6.60;;;6.90;93.30;;;;;;4996358;28;20026;-87
2021/01/20 01:18:15;;;;;;;15.30;6.37;;;7.00;92.90;;;;;;4996440;28;20025;-87
2021/01/20 01:20:41;;;;;;;15.13;6.43;;;7.00;92.90;;;;;;4996402;28;20033;-88
2021/01/20 01:23:06;;;;;;;15.00;6.60;;;7.00;92.90;;;;;;4978423;28;20029;-88
2021/01/20 01:25:32;;;;;;;17.00;6.37;;;7.00;92.90;;;;;;4978582;28;20078;-88
2021/01/20 01:27:58;;;;;;;14.47;6.47;;;7.00;92.90;;;;;;4995842;28;20027;-88
2021/01/20 01:30:24;;;;;;;16.83;6.40;;;6.90;92.90;;;;;;4978489;28;20050;-89
2021/01/20 01:32:50;;;;;;;17.90;6.57;;;7.00;93.20;;;;;;4978588;28;20077;-88
2021/01/20 01:35:15;;;;;;;14.90;5.47;;;7.00;92.90;;;;;;4996295;28;20105;-88
2021/01/20 01:37:41;;;;;;;15.93;5.70;;;7.00;93.20;;;;;;5002471;28;20487;-87
2021/01/20 01:40:07;;;;;;;15.60;6.00;;;6.90;93.00;;;;;;5015582;28;20053;-87
2021/01/20 01:42:33;;;;;;;13.60;5.10;;;6.90;93.10;;;;;;5015940;28;20483;-88
2021/01/20 01:44:59;;;;;;;13.17;5.30;;;6.90;92.30;;;;;;5015786;28;20037;-88
2021/01/20 01:47:25;;;;;;;15.67;4.70;;;6.90;93.10;;;;;;4998342;28;20539;-88
2021/01/20 01:49:50;;;;;;;14.20;5.33;;;7.00;93.20;;;;;;4998343;28;20022;-87
2021/01/20 01:52:16;;;;;;;11.13;4.60;;;7.00;92.60;;;;;;5015576;28;20490;-88
2021/01/20 01:54:44;;;;;;;12.23;4.80;;;7.00;92.10;;;;;;4997826;28;20032;-89
2021/01/20 01:57:10;;;;;;;14.77;4.60;;;7.00;92.30;;;;;;5015950;28;20029;-89
2021/01/20 01:59:36;;;;;;;13.10;4.27;;;7.00;91.70;;;;;;4998109;28;20124;-87
2021/01/20 02:02:01;;;;;;;13.93;4.53;;;6.90;92.20;;;;;;4998215;28;20034;-88
2021/01/20 02:04:27;;;;;;;12.50;3.60;;;6.90;92.50;;;;;;5015270;28;20403;-86
2021/01/20 02:06:55;;;;;;;12.87;3.90;;;6.90;92.50;;;;;;5015441;28;20033;-86
2021/01/20 02:09:21;;;;;;;13.07;3.67;;;7.10;91.70;;;;;;5015334;28;20511;-88
2021/01/20 02:12:06;;;;;;;10.77;3.43;;;7.00;91.30;;;;;;4997722;28;20030;-88
2021/01/20 02:14:50;;;;;;;14.77;3.80;;;6.90;91.40;;;;;;5037032;28;20045;-84
2021/01/20 02:17:35;;;;;;;14.40;3.70;;;7.00;91.60;;;;;;5023028;28;20022;-86
2021/01/20 02:20:33;;;;;;;17.20;4.40;;;7.00;91.70;;;;;;5038557;28;20057;-88
2021/01/20 02:23:02;;;;;;;16.30;3.87;;;6.90;91.90;;;;;;5016354;28;20018;-88
2021/01/20 02:25:59;;;;;;;12.88;3.88;;;6.90;92.10;;;;;;4997352;28;20486;-87
2021/01/20 02:28:34;;;;;;;13.27;3.87;;;6.90;91.80;;;;;;4997327;28;20429;-87
2021/01/20 02:31:01;;;;;;;13.90;3.70;;;6.90;91.70;;;;;;4997311;28;20049;-88
2021/01/20 02:33:28;;;;;;;13.00;3.80;;;6.90;91.80;;;;;;5014993;28;20018;-88
2021/01/20 02:35:56;;;;;;;14.10;4.00;;;6.80;91.60;;;;;;4997107;28;20018;-86
2021/01/20 02:38:26;;;;;;;13.70;3.72;;;6.80;91.80;;;;;;5003011;28;20022;-86
2021/01/20 02:40:51;;;;;;;13.33;3.57;;;6.80;92.00;;;;;;4977759;28;20507;-88
2021/01/20 02:43:24;;;;;;;15.03;4.33;;;6.90;91.50;;;;;;4977615;28;20027;-87
2021/01/20 02:45:50;;;;;;;15.20;4.73;;;6.90;91.70;;;;;;4977653;28;20022;-87
2021/01/20 02:48:17;;;;;;;10.47;3.60;;;6.80;91.80;;;;;;4977638;28;20383;-88
2021/01/20 02:50:43;;;;;;;12.17;3.97;;;6.80;91.50;;;;;;4995077;28;20028;-87
2021/01/20 02:53:16;;;;;;;13.63;4.30;;;6.80;91.50;;;;;;4977891;28;20429;-85
2021/01/20 02:55:48;;;;;;;13.57;3.83;;;6.80;92.00;;;;;;4977118;28;20050;-87
2021/01/20 02:58:20;;;;;;;13.73;4.27;;;6.80;91.40;;;;;;4977576;28;20025;-87
2021/01/20 03:00:46;;;;;;;10.60;4.07;;;6.80;91.10;;;;;;4977735;28;20026;-88
2021/01/20 03:03:13;;;;;;;13.03;4.30;;;6.80;91.50;;;;;;4995073;28;20034;-88
2021/01/20 03:05:41;;;;;;;10.83;4.20;;;6.80;91.50;;;;;;4977476;28;20037;-87
2021/01/20 03:08:08;;;;;;;13.47;4.40;;;6.80;91.50;;;;;;4977275;28;20027;-87
2021/01/20 03:10:33;;;;;;;13.13;4.07;;;6.80;91.50;;;;;;4994817;28;20026;-87
2021/01/20 03:12:59;;;;;;;14.03;4.40;;;6.80;91.50;;;;;;4977672;28;20118;-88
2021/01/20 03:15:33;;;;;;;14.37;4.10;;;6.80;91.50;;;;;;4994844;28;20066;-88
2021/01/20 03:17:58;;;;;;;12.30;4.13;;;6.80;91.20;;;;;;4976846;28;20030;-87
2021/01/20 03:20:24;;;;;;;14.73;4.53;;;6.80;91.10;;;;;;4977464;28;20061;-88
2021/01/20 03:22:49;;;;;;;12.20;3.87;;;6.80;91.40;;;;;;4977575;28;20125;-88
2021/01/20 03:25:15;;;;;;;11.73;4.03;;;6.80;91.30;;;;;;4994520;28;20037;-87
2021/01/20 03:27:41;;;;;;;12.90;4.20;;;6.80;91.30;;;;;;4976938;28;20039;-87
2021/01/20 03:30:07;;;;;;;12.43;3.87;;;6.80;91.50;;;;;;4994609;28;20055;-88
2021/01/20 03:32:33;;;;;;;15.50;4.30;;;6.80;91.10;;;;;;4976037;28;20022;-87
2021/01/20 03:34:59;;;;;;;11.93;3.77;;;6.80;91.50;;;;;;4977129;28;20471;-88
2021/01/20 03:37:24;;;;;;;12.00;4.07;;;6.80;91.60;;;;;;4980715;28;20033;-87
2021/01/20 03:39:50;;;;;;;12.23;4.03;;;6.80;91.50;;;;;;5013820;28;20053;-87
2021/01/20 03:42:15;;;;;;;11.90;4.33;;;6.80;91.60;;;;;;4996692;28;20483;-89
2021/01/20 03:44:41;;;;;;;16.33;4.70;;;6.80;91.50;;;;;;5013530;28;20562;-88
2021/01/20 03:47:06;;;;;;;15.17;4.50;;;6.80;91.50;;;;;;5013445;28;20048;-87
2021/01/20 03:49:32;;;;;;;12.53;4.07;;;6.80;91.10;;;;;;4996500;28;20113;-88
2021/01/20 03:51:58;;;;;;;12.23;4.10;;;6.80;91.40;;;;;;5013862;28;20040;-88
2021/01/20 03:54:23;;;;;;;13.70;4.20;;;6.80;91.30;;;;;;5014191;28;20022;-87
2021/01/20 03:56:49;;;;;;;12.70;4.30;;;6.80;91.60;;;;;;4996027;28;20393;-88
2021/01/20 03:59:14;;;;;;;12.03;4.43;;;6.80;91.30;;;;;;4996408;28;20533;-88
2021/01/20 04:01:40;;;;;;;13.10;4.63;;;6.80;91.10;;;;;;5013943;28;20108;-88
2021/01/20 04:04:05;;;;;;;12.70;3.87;;;6.80;91.20;;;;;;4995935;28;20109;-88
2021/01/20 04:06:31;;;;;;;12.80;4.20;;;6.70;91.30;;;;;;4996229;28;20033;-88
2021/01/20 04:08:56;;;;;;;11.27;4.07;;;6.70;91.30;;;;;;5013779;28;20372;-88
2021/01/20 04:11:22;;;;;;;12.27;4.40;;;6.70;91.40;;;;;;4996012;28;20026;-88
2021/01/20 04:13:48;;;;;;;15.77;4.37;;;6.70;91.30;;;;;;4996720;28;20022;-90
2021/01/20 04:16:14;;;;;;;11.50;4.13;;;6.70;91.50;;;;;;4996838;28;20042;-90
2021/01/20 04:18:39;;;;;;;13.13;4.30;;;6.70;91.50;;;;;;4996892;28;20029;-90
2021/01/20 04:21:05;;;;;;;14.83;4.87;;;6.80;91.50;;;;;;4996744;28;20038;-90
2021/01/20 04:23:31;;;;;;;13.10;4.50;;;6.80;91.00;;;;;;4996967;28;20070;-90
2021/01/20 04:25:56;;;;;;;12.90;4.03;;;6.70;91.60;;;;;;4997052;28;20030;-90
2021/01/20 04:28:22;;;;;;;15.37;4.83;;;6.80;91.40;;;;;;4996646;28;20065;-90
2021/01/20 04:30:48;;;;;;;11.83;4.43;;;6.70;91.70;;;;;;4996342;28;20046;-90
2021/01/20 04:33:13;;;;;;;15.07;5.23;;;6.70;91.60;;;;;;4996756;28;20133;-90
2021/01/20 04:35:39;;;;;;;12.67;4.23;;;6.80;91.70;;;;;;4996290;28;20022;-90
2021/01/20 04:38:05;;;;;;;14.00;4.80;;;6.80;91.70;;;;;;4996662;28;20034;-90
2021/01/20 04:40:31;;;;;;;13.43;4.30;;;6.80;91.80;;;;;;4996875;28;20029;-90
2021/01/20 04:42:57;;;;;;;13.07;4.70;;;6.80;92.00;;;;;;4997088;28;20040;-90
2021/01/20 04:45:23;;;;;;;13.70;4.67;;;6.80;91.70;;;;;;4996455;28;20030;-90
2021/01/20 04:47:52;;;;;;;13.43;4.53;;;6.80;91.90;;;;;;5013789;28;20040;-90
2021/01/20 04:50:20;;;;;;;13.13;4.93;;;6.80;92.00;;;;;;5013759;28;20113;-91
2021/01/20 04:52:47;;;;;;;14.23;4.47;;;6.80;92.10;;;;;;4996402;28;20084;-90
2021/01/20 04:55:14;;;;;;;12.63;4.73;;;6.80;92.10;;;;;;4995951;28;20022;-90
2021/01/20 04:57:40;;;;;;;15.07;4.83;;;6.70;92.40;;;;;;4997681;28;20018;-91
2021/01/20 05:00:07;;;;;;;14.03;4.40;;;6.70;92.70;;;;;;5000082;28;20068;-90
2021/01/20 05:02:34;;;;;;;13.90;4.50;;;6.70;92.60;;;;;;4999748;28;20394;-90
2021/01/20 05:05:01;;;;;;;11.90;4.60;;;6.70;92.60;;;;;;5000104;28;20137;-90
2021/01/20 05:07:30;;;;;;;14.67;5.37;;;6.70;92.70;;;;;;5000223;28;20029;-90
2021/01/20 05:09:56;;;;;;;14.35;4.60;;;6.70;92.60;;;;;;4999824;28;20033;-90
2021/01/20 05:12:41;;;;;;;11.40;3.83;;;6.70;92.70;;;;;;4999845;28;20121;-90
2021/01/20 05:15:10;;;;;;;12.77;4.13;;;6.70;92.70;;;;;;4999924;28;20026;-90
2021/01/20 05:17:55;;;;;;;10.80;4.20;;;6.80;92.70;;;;;;4999800;28;20064;-91
2021/01/20 05:20:50;;;;;;;11.17;3.97;;;6.80;92.60;;;;;;4999609;28;20052;-90
2021/01/20 05:23:16;;;;;;;11.53;4.03;;;6.80;92.60;;;;;;4983450;28;20495;-90
2021/01/20 05:25:44;;;;;;;11.30;3.80;;;6.80;92.60;;;;;;4999210;28;20037;-90
2021/01/20 05:28:23;;;;;;;12.33;3.90;;;6.90;92.60;;;;;;4999123;28;20034;-90
2021/01/20 05:30:52;;;;;;;10.23;3.47;;;6.90;92.50;;;;;;4999511;28;20042;-90
2021/01/20 05:33:33;;;;;;;12.38;3.97;;;6.90;92.50;;;;;;5001884;28;20045;-90
2021/01/20 05:36:10;;;;;;;11.23;3.67;;;7.00;92.40;;;;;;5034996;28;20021;-91
2021/01/20 05:38:48;;;;;;;11.03;3.33;;;7.00;92.30;;;;;;5024261;28;20101;-91
2021/01/20 05:41:22;;;;;;;10.52;3.47;;;7.00;92.20;;;;;;5023922;28;20052;-90
2021/01/20 05:43:49;;;;;;;13.53;3.70;;;7.10;92.00;;;;;;5023792;28;20049;-91
2021/01/20 05:46:32;;;;;;;10.33;3.60;;;7.10;92.10;;;;;;5003471;28;20516;-90
2021/01/20 05:48:57;;;;;;;10.27;3.33;;;7.10;91.50;;;;;;4999397;28;20030;-84
2021/01/20 05:51:23;;;;;;;7.60;3.13;;;7.20;91.50;;;;;;5000646;28;20125;-85
2021/01/20 05:53:57;;;;;;;10.50;3.50;;;7.30;91.50;;;;;;5001658;28;20483;-85
2021/01/20 05:56:30;;;;;;;12.03;3.30;;;7.20;91.70;;;;;;5001634;28;20022;-86
2021/01/20 05:58:56;;;;;;;9.50;3.00;;;7.30;91.70;;;;;;5001005;28;20022;-84
2021/01/20 06:01:23;;;;;;;11.17;3.50;;;7.30;91.50;;;;;;5000360;28;20068;-87
2021/01/20 06:03:53;;;;;;;12.90;3.43;;;7.30;91.40;;;;;;5018476;28;20453;-86
2021/01/20 06:06:20;;;;;;;10.33;3.40;;;7.30;91.40;;;;;;5001003;28;20034;-86
2021/01/20 06:08:46;;;;;;;11.63;3.43;;;7.30;91.50;;;;;;5018590;28;20022;-85
2021/01/20 06:11:12;;;;;;;9.73;3.33;;;7.40;91.50;;;;;;5000954;28;20025;-86
2021/01/20 06:13:37;;;;;;;8.63;3.27;;;7.40;91.00;;;;;;5018588;28;20030;-86
2021/01/20 06:16:17;;;;;;;12.43;3.43;;;7.40;91.30;;;;;;5000943;28;20022;-85
2021/01/20 06:18:48;;;;;;;9.63;3.27;;;7.50;91.10;;;;;;5019458;28;20173;-85
2021/01/20 06:21:18;;;;;;;9.23;3.07;;;7.50;90.70;;;;;;5001153;28;20021;-86
2021/01/20 06:24:11;;;;;;;11.03;3.87;;;7.50;91.40;;;;;;5002457;28;20036;-85
2021/01/20 06:26:47;;;;;;;10.07;3.47;;;7.50;90.50;;;;;;5001040;28;20032;-87
2021/01/20 06:29:16;;;;;;;9.73;3.43;;;7.60;91.00;;;;;;5000334;28;20042;-85
2021/01/20 06:31:45;;;;;;;10.50;3.28;;;7.60;90.90;;;;;;5019558;28;20483;-83
2021/01/20 06:34:11;;;;;;;8.10;3.22;;;7.60;91.20;;;;;;5003018;28;20022;-84
2021/01/20 06:36:37;;;;;;;10.13;3.80;;;7.60;90.50;;;;;;5009875;28;20032;-83
2021/01/20 06:39:25;;;;;;;9.80;3.30;;;7.60;90.60;;;;;;5025811;28;20494;-83
2021/01/20 06:41:51;;;;;;;14.00;3.53;;;7.60;91.00;;;;;;4992376;28;20089;-84
2021/01/20 06:44:17;;;;;;;9.30;3.30;;;7.60;90.80;;;;;;4987065;28;20069;-85
2021/01/20 06:46:57;;;;;;;12.47;3.80;;;7.60;90.80;;;;;;4987341;28;20058;-87
2021/01/20 06:49:28;;;;;;;13.23;3.60;;;7.60;88.40;;;;;;4997948;28;20031;-85
2021/01/20 06:52:15;;;;;;;9.40;3.67;;;7.60;90.50;;;;;;5011084;28;20045;-88
2021/01/20 06:54:42;;;;;;;10.40;3.37;;;7.60;90.60;;;;;;5003691;28;20086;-84
2021/01/20 06:57:27;;;;;;;8.70;3.33;;;7.60;90.30;;;;;;5001094;28;20105;-85
2021/01/20 07:00:08;;;;;;;10.03;3.20;;;7.60;90.40;;;;;;5009758;28;20111;-90
2021/01/20 07:02:35;;;;;;;9.07;3.20;;;7.70;89.60;;;;;;4995867;28;20431;-90
2021/01/20 07:05:03;;;;;;;9.13;3.53;;;7.60;90.10;;;;;;4995127;28;20019;-90
2021/01/20 07:07:54;;;;;;;7.87;3.10;;;7.60;89.50;;;;;;5011058;28;20301;-89
2021/01/20 07:10:22;;;;;;;10.97;3.33;;;7.60;89.00;;;;;;5017248;28;20023;-89
2021/01/20 07:13:10;;;;;;;10.13;3.40;;;7.70;90.00;;;;;;5017208;28;20050;-89
2021/01/20 07:15:40;;;;;;;9.53;3.07;;;7.60;89.50;;;;;;5002104;28;20030;-87
2021/01/20 07:18:07;;;;;;;10.87;3.17;;;7.60;89.70;;;;;;4995492;28;20062;-82
2021/01/20 07:20:34;;;;;;;9.43;3.33;;;7.60;89.60;;;;;;4997376;28;20026;-79
2021/01/20 07:23:00;;;;;;;10.93;3.37;;;7.60;90.20;;;;;;5000909;28;20038;-91
2021/01/20 07:25:29;;;;;;;8.67;3.00;;;7.70;89.80;;;;;;5012675;28;20022;-92
2021/01/20 07:27:55;;;;;;;11.40;3.13;;;7.60;89.60;;;;;;4980885;28;20483;-91
2021/01/20 07:30:21;;;;;;;11.17;3.20;;;7.60;89.30;;;;;;4995823;28;20065;-86
2021/01/20 07:32:47;;;;;;;8.57;3.13;;;7.60;88.90;;;;;;4982196;28;20372;-88
2021/01/20 07:35:24;;;;;;;7.73;3.03;;;7.70;88.70;;;;;;4979437;28;20023;-88
2021/01/20 07:38:06;;;;;;;7.73;2.90;;;7.70;88.80;;;;;;4977654;28;20154;-91
2021/01/20 07:40:34;;;;;;;9.20;3.20;;;7.70;87.10;;;;;;4978108;28;20034;-89
2021/01/20 07:43:00;;;;;;;7.93;2.90;;;7.70;87.00;;;;;;4979237;28;20033;-92
2021/01/20 07:45:46;;;;;;;9.33;3.10;;;7.70;87.30;;;;;;4978654;28;20117;-91
2021/01/20 07:48:12;;;;;;;9.77;3.10;;;7.70;87.00;;;;;;4998838;28;20044;-92
2021/01/20 07:50:46;;;;;;;9.73;3.30;;;7.70;86.60;;;;;;4985690;28;20117;-92
2021/01/20 07:53:17;;;;;;;7.73;3.03;;;7.70;85.70;;;;;;4980882;28;20027;-92
2021/01/20 07:55:44;;;;;;;8.73;2.87;;;7.70;86.30;;;;;;4978890;28;20102;-90
2021/01/20 07:58:10;;;;;;;8.80;3.33;;;7.80;85.90;;;;;;4978102;28;20501;-91
2021/01/20 08:00:48;;;;;;;9.67;3.20;;;7.70;85.90;;;;;;4978579;28;20026;-91
2021/01/20 08:03:33;;;;;;;8.50;2.87;;;7.80;84.70;;;;;;4979661;28;20031;-92
2021/01/20 08:05:59;;;;;;;8.20;3.00;;;7.80;85.50;;;;;;4982050;28;20039;-91
2021/01/20 08:08:25;;;;;;;14.33;3.07;;;7.70;85.70;;;;;;4980650;28;20026;-89
2021/01/20 08:10:56;;;;;;;9.03;3.00;;;7.80;85.80;;;;;;4981214;28;20027;-89
2021/01/20 08:13:24;;;;;;;8.63;3.23;;;7.80;85.60;;;;;;4979492;28;20621;-88
2021/01/20 08:15:49;;;;;;;9.73;3.20;;;7.80;85.70;;;;;;4999802;28;20121;-85
2021/01/20 08:18:17;;;;;;;9.57;3.00;;;7.80;85.30;;;;;;5003711;28;20451;-87
2021/01/20 08:20:43;;;;;;;9.63;3.43;;;7.90;85.00;;;;;;4985538;28;20026;-91
2021/01/20 08:23:30;;;;;;;9.13;3.00;;;7.80;85.70;;;;;;4987271;28;20463;-91
2021/01/20 08:26:06;;;;;;;6.87;2.60;;;7.80;84.80;;;;;;4982478;28;20018;-89
2021/01/20 08:28:32;;;;;;;10.27;3.10;;;7.90;85.60;;;;;;4979577;28;20022;-91
2021/01/20 08:30:58;;;;;;;10.43;3.03;;;7.90;85.80;;;;;;4983751;28;20057;-92
2021/01/20 08:33:24;;;;;;;8.50;2.70;;;7.90;86.30;;;;;;4987768;28;20026;-90
2021/01/20 08:35:57;;;;;;;9.47;2.90;;;7.90;85.90;;;;;;4983346;28;20027;-91
2021/01/20 08:38:27;;;;;;;7.40;2.50;;;8.00;84.70;;;;;;4981598;28;20022;-90
2021/01/20 08:41:09;;;;;;;4.97;2.13;;;8.00;84.50;;;;;;4965915;28;20039;-91
2021/01/20 08:43:34;;;;;;;7.90;2.70;;;8.00;84.30;;;;;;4981946;28;20034;-86
2021/01/20 08:46:26;;;;;;;6.37;2.40;;;8.00;84.60;;;;;;5020975;28;20034;-90
2021/01/20 08:48:57;;;;;;;7.90;2.83;;;8.00;83.40;;;;;;5020658;28;20021;-90
2021/01/20 08:51:23;;;;;;;9.40;2.90;;;8.00;84.90;;;;;;4996402;28;20079;-88
2021/01/20 08:53:48;;;;;;;8.37;2.50;;;8.00;84.80;;;;;;5002233;28;20030;-85
2021/01/20 08:56:25;;;;;;;7.80;2.70;;;8.10;84.80;;;;;;4984077;28;20566;-86
2021/01/20 08:58:54;;;;;;;8.30;2.73;;;8.10;83.90;;;;;;4982284;28;20065;-86
2021/01/20 09:01:29;;;;;;;8.10;2.73;;;8.10;84.50;;;;;;4985547;28;20023;-90
2021/01/20 09:03:57;;;;;;;7.93;2.70;;;8.20;84.50;;;;;;4986630;28;20034;-91
2021/01/20 09:06:24;;;;;;;5.87;2.10;;;8.20;84.90;;;;;;5003752;28;20029;-91
2021/01/20 09:08:50;;;;;;;7.93;2.27;;;8.20;84.60;;;;;;4982607;28;20042;-90
2021/01/20 09:11:16;;;;;;;7.73;2.63;;;8.30;84.50;;;;;;4978986;28;20072;-87
2021/01/20 09:13:41;;;;;;;7.87;2.17;;;8.30;84.50;;;;;;4981609;28;20023;-88
2021/01/20 09:16:07;;;;;;;7.00;2.40;;;8.30;84.60;;;;;;4981346;28;20022;-89
2021/01/20 09:18:33;;;;;;;7.60;2.70;;;8.30;84.90;;;;;;4981988;28;20029;-88
2021/01/20 09:21:00;;;;;;;6.57;2.13;;;8.30;84.70;;;;;;4984905;28;20038;-86
2021/01/20 09:23:25;;;;;;;6.73;2.47;;;8.40;85.00;;;;;;4979583;28;20566;-87
2021/01/20 09:25:51;;;;;;;7.73;2.03;;;8.40;84.60;;;;;;4980407;28;20030;-86
2021/01/20 09:28:17;;;;;;;7.33;1.90;;;8.40;85.00;;;;;;4981138;28;20115;-87
2021/01/20 09:30:42;;;;;;;5.33;2.27;;;8.50;83.90;;;;;;4980914;28;20079;-86
2021/01/20 09:33:08;;;;;;;6.80;2.37;;;8.50;84.10;;;;;;4981444;28;20117;-86
2021/01/20 09:35:34;;;;;;;6.83;2.10;;;8.60;83.80;;;;;;4980311;28;20439;-86
2021/01/20 09:38:01;;;;;;;6.33;1.93;;;8.60;84.00;;;;;;4998990;28;20022;-85
2021/01/20 09:40:28;;;;;;;4.57;1.93;;;8.60;84.30;;;;;;4981508;28;20114;-87
2021/01/20 09:42:54;;;;;;;6.80;1.97;;;8.60;84.30;;;;;;4982459;28;20073;-87
2021/01/20 09:45:26;;;;;;;4.33;1.97;;;8.60;83.60;;;;;;4982455;28;20027;-85
2021/01/20 09:47:52;;;;;;;5.57;1.83;;;8.60;84.20;;;;;;4980832;28;20026;-86
2021/01/20 09:50:18;;;;;;;6.53;1.90;;;8.70;83.50;;;;;;4981035;28;20037;-85
2021/01/20 09:52:44;;;;;;;6.93;2.17;;;8.70;83.20;;;;;;4981466;28;20023;-85
2021/01/20 09:55:11;;;;;;;5.40;1.90;;;8.70;83.70;;;;;;4999127;28;20082;-83
2021/01/20 09:57:37;;;;;;;5.43;2.00;;;8.60;84.20;;;;;;4981750;28;20026;-85
2021/01/20 10:00:04;;;;;;;8.27;2.00;;;8.70;84.20;;;;;;4981452;28;20030;-85
2021/01/20 10:02:30;;;;;;;6.90;2.10;;;8.70;83.70;;;;;;4980619;28;20085;-84
2021/01/20 10:04:56;;;;;;;5.37;1.93;;;8.60;84.30;;;;;;4980448;28;20030;-83
2021/01/20 10:07:23;;;;;;;4.53;1.90;;;8.60;84.40;;;;;;4998426;28;20078;-86
2021/01/20 10:09:49;;;;;;;7.23;2.20;;;8.60;84.60;;;;;;4981085;28;20034;-85
2021/01/20 10:12:14;;;;;;;4.63;2.10;;;8.70;84.60;;;;;;4981390;28;20045;-86
2021/01/20 10:14:42;;;;;;;6.47;2.33;;;8.70;83.90;;;;;;4998363;28;20023;-86
2021/01/20 10:17:08;;;;;;;8.47;2.33;;;8.70;83.70;;;;;;4981466;28;20376;-86
2021/01/20 10:19:34;;;;;;;8.20;2.30;;;8.70;83.60;;;;;;4981566;28;20053;-84
2021/01/20 10:21:59;;;;;;;7.80;2.33;;;8.70;83.90;;;;;;4998750;28;20038;-85
2021/01/20 10:24:25;;;;;;;6.60;2.30;;;8.70;84.30;;;;;;4980924;28;20038;-83
2021/01/20 10:26:51;;;;;;;6.70;2.47;;;8.80;83.90;;;;;;4999188;28;20041;-84
2021/01/20 10:29:17;;;;;;;10.30;2.20;;;8.80;83.40;;;;;;4980347;28;20108;-85
2021/01/20 10:31:43;;;;;;;7.33;2.30;;;8.80;83.90;;;;;;4979817;28;20065;-84
2021/01/20 10:34:10;;;;;;;4.83;2.20;;;8.80;83.90;;;;;;4995595;28;20029;-87
2021/01/20 10:36:36;;;;;;;7.37;2.30;;;8.80;84.10;;;;;;4996375;28;20033;-86
2021/01/20 10:39:07;;;;;;;7.37;2.40;;;8.90;84.20;;;;;;4979267;28;20027;-85
2021/01/20 10:41:33;;;;;;;6.10;2.30;;;8.90;84.20;;;;;;4996724;28;20045;-86
2021/01/20 10:43:59;;;;;;;7.43;2.30;;;8.90;84.20;;;;;;4977833;28;20046;-87
2021/01/20 10:46:27;;;;;;;6.83;2.20;;;9.00;83.90;;;;;;4977619;28;20035;-88
2021/01/20 10:48:54;;;;;;;9.57;2.33;;;9.10;83.60;;;;;;4978829;28;20030;-88
2021/01/20 10:51:20;;;;;;;9.67;2.40;;;9.10;83.30;;;;;;4984777;28;20037;-86
2021/01/20 10:53:46;;;;;;;9.60;2.40;;;9.10;83.40;;;;;;4981265;28;20058;-87
2021/01/20 10:56:12;;;;;;;8.73;2.80;;;9.20;83.20;;;;;;4996024;28;20029;-87
2021/01/20 10:58:37;;;;;;;5.40;2.17;;;9.20;82.90;;;;;;4998409;28;20031;-86
2021/01/20 11:01:03;;;;;;;9.33;2.60;;;9.30;82.90;;;;;;4983171;28;20036;-86
2021/01/20 11:03:29;;;;;;;9.87;2.80;;;9.30;82.30;;;;;;4987185;28;20034;-84
2021/01/20 11:05:55;;;;;;;7.20;2.70;;;9.30;82.40;;;;;;4982993;28;20045;-85
2021/01/20 11:08:20;;;;;;;7.30;2.30;;;9.40;82.10;;;;;;4998138;28;20054;-86
2021/01/20 11:10:46;;;;;;;8.50;2.43;;;9.40;81.40;;;;;;4978425;28;20030;-86
2021/01/20 11:13:12;;;;;;;9.37;2.20;;;9.50;81.50;;;;;;4982404;28;20069;-85
2021/01/20 11:15:40;;;;;;;6.97;2.97;;;9.50;80.10;;;;;;4983402;28;20057;-85
2021/01/20 11:18:06;;;;;;;5.80;1.93;;;9.50;80.40;;;;;;4997309;28;20031;-85
2021/01/20 11:20:33;;;;;;;4.63;1.90;;;9.60;80.30;;;;;;4985109;28;20026;-82
2021/01/20 11:22:59;;;;;;;4.17;1.83;;;9.60;80.30;;;;;;4985132;28;20108;-86
2021/01/20 11:25:25;;;;;;;7.47;2.23;;;9.60;80.10;;;;;;4999134;28;20439;-86
2021/01/20 11:27:50;;;;;;;5.50;2.10;;;9.70;80.50;;;;;;4977593;28;20026;-88
2021/01/20 11:30:17;;;;;;;5.37;2.27;;;9.70;80.60;;;;;;4976888;28;20096;-88
2021/01/20 11:32:44;;;;;;;7.07;2.20;;;9.70;80.50;;;;;;4977159;28;20026;-87
2021/01/20 11:35:10;;;;;;;7.27;2.20;;;9.80;79.00;;;;;;4994696;28;20394;-88
2021/01/20 11:37:36;;;;;;;7.33;2.40;;;9.80;80.60;;;;;;4977208;28;20542;-88
2021/01/20 11:40:06;;;;;;;7.13;2.07;;;9.80;79.90;;;;;;4977174;28;20026;-87
2021/01/20 11:42:33;;;;;;;9.90;2.50;;;9.80;79.80;;;;;;4979183;28;20112;-87
2021/01/20 11:44:58;;;;;;;6.03;2.20;;;9.80;79.10;;;;;;4979010;28;20069;-88
2021/01/20 11:47:24;;;;;;;7.57;2.47;;;9.80;78.50;;;;;;4999019;28;20015;-92
2021/01/20 11:49:51;;;;;;;8.40;2.37;;;9.80;79.00;;;;;;5001364;28;20038;-91
2021/01/20 11:52:17;;;;;;;6.93;2.30;;;9.80;78.30;;;;;;5001235;28;20046;-92
2021/01/20 11:54:43;;;;;;;8.20;2.37;;;9.80;79.20;;;;;;5000234;28;20025;-89
2021/01/20 11:57:09;;;;;;;7.83;3.07;;;9.80;78.90;;;;;;4977407;28;20027;-90
2021/01/20 11:59:35;;;;;;;6.07;2.10;;;9.70;79.10;;;;;;4978384;28;20447;-86
2021/01/20 12:02:00;;;;;;;6.97;2.30;;;9.80;78.30;;;;;;4978876;28;20142;-88
2021/01/20 12:04:26;;;;;;;8.30;2.43;;;9.80;78.80;;;;;;4977648;28;20049;-89
2021/01/20 12:06:52;;;;;;;8.20;2.43;;;9.80;79.50;;;;;;4979249;28;20121;-89
2021/01/20 12:09:19;;;;;;;6.33;2.50;;;9.80;78.00;;;;;;4980776;28;20061;-89
2021/01/20 12:11:46;;;;;;;8.57;2.50;;;9.80;79.10;;;;;;4981459;28;20077;-89
2021/01/20 12:14:11;;;;;;;7.07;2.47;;;9.80;77.90;;;;;;4983396;28;20037;-89
2021/01/20 12:16:38;;;;;;;7.63;2.60;;;9.80;79.10;;;;;;4980704;28;20125;-88
2021/01/20 12:19:03;;;;;;;8.17;2.60;;;9.90;79.40;;;;;;4980930;28;20121;-89
2021/01/20 12:21:29;;;;;;;7.00;2.27;;;9.80;78.70;;;;;;4980351;28;20468;-89
2021/01/20 12:23:55;;;;;;;6.20;2.37;;;9.90;78.90;;;;;;4980968;28;20030;-89
2021/01/20 12:26:20;;;;;;;8.77;2.67;;;9.90;78.30;;;;;;4980431;28;20030;-89
2021/01/20 12:28:46;;;;;;;9.03;2.63;;;9.90;77.90;;;;;;4981160;28;20038;-87
2021/01/20 12:31:11;;;;;;;7.60;2.93;;;9.90;77.60;;;;;;4981567;28;20031;-88
2021/01/20 12:33:38;;;;;;;9.30;2.60;;;9.80;78.50;;;;;;4982716;28;20077;-89
2021/01/20 12:36:04;;;;;;;8.10;2.83;;;9.80;78.00;;;;;;4981467;28;20019;-89
2021/01/20 12:38:30;;;;;;;7.30;2.50;;;9.80;75.30;;;;;;4984295;28;20077;-89
2021/01/20 12:40:55;;;;;;;8.77;2.90;;;9.90;78.70;;;;;;4982798;28;20491;-89
2021/01/20 12:43:21;;;;;;;23.40;3.80;;;10.00;76.30;;;;;;4999716;28;20034;-89
2021/01/20 12:45:47;;;;;;;8.37;2.83;;;10.00;76.40;;;;;;5001093;28;20396;-88
2021/01/20 12:48:13;;;;;;;8.40;2.40;;;10.00;76.70;;;;;;4999982;28;20050;-88
2021/01/20 12:50:38;;;;;;;8.03;2.67;;;10.00;76.20;;;;;;4999824;28;20095;-88
2021/01/20 12:53:04;;;;;;;15.27;3.00;;;10.00;76.50;;;;;;5000400;28;20113;-87
2021/01/20 12:55:29;;;;;;;10.13;2.60;;;10.00;76.30;;;;;;4999673;28;20109;-87